Terminal Aerodrome Forecast
Issued by NWS Tulsa, OK

Home | Current Version | Previous Version | Text Only | Print | Product List | Glossary On
Versions: 1 2 3 4 5 6 7 8 9 10 11 12 13 14 15
505
FTUS44 KTSA 270520
TAFFSM
TAF
KFSM 270520Z 2706/2806 07002KT P6SM BKN250
      TEMPO 2709/2713 4SM BR
     FM271500 08003KT P6SM SCT035 BKN250
     FM271900 12005KT P6SM VCTS SCT050CB BKN100
     FM280100 VRB03KT P6SM BKN120=

USA.gov is the U.S. government's official web portal to all federal, state and local government web resources and services.